Time;durP1;ratioP1;P1;durP2;ratioP2;P2;SDS_P1;SDS_P2;PMS_P1;PMS_P2;Temp;Humidity;BMP_temperature;BMP_pressure;BME280_temperature;BME280_humidity;BME280_pressure;Samples;Min_cycle;Max_cycle;Signal;HPM_P1;HPM_P2
2023/01/31 00:01:32;;;;;;;0.70;0.70;;;;;;;-3.61;94.58;97336.22;5035932;28;20066;-84
2023/01/31 00:04:02;;;;;;;1.00;1.00;;;;;;;-3.61;94.53;97333.56;4999672;28;20054;-85
2023/01/31 00:06:31;;;;;;;0.80;0.80;;;;;;;-3.65;94.57;97334.97;4997793;28;20077;-84
2023/01/31 00:09:00;;;;;;;0.70;0.70;;;;;;;-3.65;94.67;97337.59;5001706;28;20046;-85
2023/01/31 00:11:28;;;;;;;0.70;0.70;;;;;;;-3.68;94.55;97339.81;5016361;28;20100;-85
2023/01/31 00:13:58;;;;;;;0.80;0.80;;;;;;;-3.66;94.75;97337.81;5016560;28;20046;-86
2023/01/31 00:16:25;;;;;;;0.90;0.90;;;;;;;-3.68;94.79;97327.44;5016754;28;20037;-85
2023/01/31 00:18:53;;;;;;;0.80;0.80;;;;;;;-3.67;94.83;97334.38;5017270;28;20049;-85
2023/01/31 00:21:22;;;;;;;0.85;0.85;;;;;;;-3.66;94.81;97330.72;4999296;28;20508;-84
2023/01/31 00:23:53;;;;;;;0.80;0.80;;;;;;;-3.66;94.63;97320.16;4982861;28;20045;-83
2023/01/31 00:26:26;;;;;;;0.75;0.75;;;;;;;-3.65;94.67;97327.06;5017624;28;20052;-83
2023/01/31 00:28:54;;;;;;;0.75;0.75;;;;;;;-3.66;94.70;97335.19;5015031;28;20054;-81
2023/01/31 00:31:23;;;;;;;0.88;0.88;;;;;;;-3.67;94.85;97331.72;5015459;28;20100;-81
2023/01/31 00:33:52;;;;;;;0.60;0.60;;;;;;;-3.67;94.90;97329.09;4995508;28;20054;-83
2023/01/31 00:36:22;;;;;;;0.70;0.70;;;;;;;-3.68;94.59;97322.19;4995465;28;20152;-81
2023/01/31 00:38:51;;;;;;;0.70;0.70;;;;;;;-3.69;94.79;97338.22;4995798;28;20438;-82
2023/01/31 00:41:20;;;;;;;0.80;0.80;;;;;;;-3.72;94.94;97329.69;5013354;28;20057;-81
2023/01/31 00:43:50;;;;;;;1.02;1.02;;;;;;;-3.70;94.76;97329.47;5013546;28;20416;-80
2023/01/31 00:46:19;;;;;;;0.70;0.70;;;;;;;-3.69;94.99;97343.47;5013120;28;20061;-82
2023/01/31 00:48:47;;;;;;;0.90;0.90;;;;;;;-3.67;95.06;97344.06;5013244;28;20092;-81
2023/01/31 00:51:17;;;;;;;0.90;0.90;;;;;;;-3.66;94.88;97351.00;5013073;28;20045;-82
2023/01/31 00:53:45;;;;;;;0.90;0.90;;;;;;;-3.69;94.93;97344.28;5013051;28;20389;-82
2023/01/31 00:56:14;;;;;;;1.00;1.00;;;;;;;-3.65;95.01;97353.41;4995723;28;20050;-83
2023/01/31 00:58:41;;;;;;;0.80;0.80;;;;;;;-3.59;95.08;97363.22;4995384;28;20145;-82
2023/01/31 01:01:13;;;;;;;0.68;0.68;;;;;;;-3.57;94.79;97355.91;4979401;28;20050;-83
2023/01/31 01:03:41;;;;;;;0.90;0.90;;;;;;;-3.54;94.60;97354.72;4995110;28;20423;-80
2023/01/31 01:06:09;;;;;;;0.90;0.90;;;;;;;-3.52;94.38;97356.16;5029068;28;20523;-81
2023/01/31 01:08:37;;;;;;;0.73;0.73;;;;;;;-3.53;94.08;97348.41;5014847;28;20046;-81
2023/01/31 01:11:15;;;;;;;0.88;0.88;;;;;;;-3.55;94.08;97350.44;5015169;28;20076;-81
2023/01/31 01:13:43;;;;;;;0.73;0.73;;;;;;;-3.57;94.31;97363.84;5014636;28;20128;-81
2023/01/31 01:16:19;;;;;;;0.95;0.95;;;;;;;-3.53;94.28;97362.41;5032317;28;20738;-81
2023/01/31 01:18:48;;;;;;;0.60;0.60;;;;;;;-3.53;94.26;97364.25;5014609;28;20504;-82
2023/01/31 01:21:26;;;;;;;0.77;0.77;;;;;;;-3.53;94.23;97361.59;5032209;28;20053;-82
2023/01/31 01:23:56;;;;;;;0.90;0.90;;;;;;;-3.50;94.26;97354.09;5014473;28;20066;-81
2023/01/31 01:26:28;;;;;;;0.90;0.90;;;;;;;-3.51;94.19;97357.78;5031690;28;20424;-82
2023/01/31 01:28:56;;;;;;;0.90;0.90;;;;;;;-3.54;93.87;97366.06;5032108;28;20045;-81
2023/01/31 01:31:29;;;;;;;0.70;0.70;;;;;;;-3.58;94.04;97359.56;5031709;28;20068;-81
2023/01/31 01:33:57;;;;;;;0.80;0.80;;;;;;;-3.55;94.14;97360.97;5032131;28;20045;-81
2023/01/31 01:36:25;;;;;;;0.80;0.80;;;;;;;-3.53;94.07;97362.41;5013919;28;20055;-81
2023/01/31 01:38:52;;;;;;;0.90;0.90;;;;;;;-3.49;94.15;97370.78;5013925;28;20421;-82
2023/01/31 01:41:23;;;;;;;0.90;0.90;;;;;;;-3.54;93.83;97355.53;5013727;28;20554;-81
2023/01/31 01:43:55;;;;;;;0.75;0.75;;;;;;;-3.50;93.72;97364.66;5033166;28;20132;-83
2023/01/31 01:46:35;;;;;;;0.90;0.90;;;;;;;-3.50;93.76;97363.84;5014137;28;20508;-82
2023/01/31 01:49:31;;;;;;;1.00;1.00;;;;;;;-3.51;93.55;97364.88;5014265;28;20061;-82
2023/01/31 01:52:00;;;;;;;0.90;0.90;;;;;;;-3.51;93.15;97360.41;5014051;28;20076;-82
2023/01/31 01:54:36;;;;;;;0.77;0.77;;;;;;;-3.47;93.30;97365.28;5031192;28;20053;-82
2023/01/31 01:57:05;;;;;;;0.70;0.70;;;;;;;-3.44;93.03;97371.00;5030152;28;20091;-82
2023/01/31 01:59:43;;;;;;;0.63;0.63;;;;;;;-3.44;93.15;97365.72;5031099;28;20045;-82
2023/01/31 02:02:11;;;;;;;0.70;0.70;;;;;;;-3.41;92.57;97391.72;5031371;28;20046;-80
2023/01/31 02:04:39;;;;;;;0.80;0.80;;;;;;;-3.42;92.58;97371.59;5013410;28;20050;-82
2023/01/31 02:07:07;;;;;;;0.90;0.90;;;;;;;-3.41;92.59;97359.25;5013858;28;20071;-83
2023/01/31 02:09:46;;;;;;;0.85;0.85;;;;;;;-3.39;92.45;97373.03;5031565;28;20084;-80
2023/01/31 02:12:13;;;;;;;0.70;0.70;;;;;;;-3.39;92.62;97359.84;5031033;28;20574;-82
2023/01/31 02:14:41;;;;;;;0.60;0.60;;;;;;;-3.38;92.37;97358.84;5013360;28;20136;-81
2023/01/31 02:17:28;;;;;;;0.93;0.93;;;;;;;-3.38;92.56;97357.03;5015872;28;20088;-82
2023/01/31 02:20:31;;;;;;;1.00;1.00;;;;;;;-3.38;92.52;97362.28;5013247;28;20051;-80
2023/01/31 02:23:22;;;;;;;0.80;0.80;;;;;;;-3.38;91.91;97358.84;4953731;28;20054;-81
2023/01/31 02:26:22;;;;;;;0.70;0.70;;;;;;;-3.41;92.09;97354.78;4969712;28;20687;-82
2023/01/31 02:29:23;;;;;;;0.73;0.73;;;;;;;-3.40;92.27;97342.41;4969868;28;20050;-82
2023/01/31 02:32:37;;;;;;;0.82;0.82;;;;;;;-3.44;92.05;97349.06;4969604;28;20062;-82
2023/01/31 02:35:25;;;;;;;0.98;0.98;;;;;;;-3.41;92.06;97357.41;4969613;28;20078;-81
2023/01/31 02:38:20;;;;;;;0.80;0.80;;;;;;;-3.41;92.14;97348.69;4969604;28;20089;-82
2023/01/31 02:41:15;;;;;;;0.90;0.90;;;;;;;-3.37;91.92;97349.91;4953407;28;20061;-81
2023/01/31 02:47:07;;;;;;;0.90;0.90;;;;;;;-3.36;91.96;97356.84;4969129;28;20490;-81
2023/01/31 02:49:40;;;;;;;0.70;0.70;;;;;;;-3.39;91.96;97341.38;4953004;28;20575;-82
2023/01/31 02:52:17;;;;;;;0.80;0.80;;;;;;;-3.39;91.89;97358.03;4938003;28;20054;-81
2023/01/31 02:58:02;;;;;;;0.90;0.90;;;;;;;-3.37;91.34;97355.19;4969404;28;20054;-81
2023/01/31 03:00:32;;;;;;;0.90;0.90;;;;;;;-3.32;91.08;97352.78;4991999;28;20061;-81
2023/01/31 03:02:59;;;;;;;0.95;0.95;;;;;;;-3.36;91.14;97347.09;5013011;28;20053;-82
2023/01/31 03:05:28;;;;;;;1.23;1.20;;;;;;;-3.34;91.19;97360.06;5030022;28;20681;-82
2023/01/31 03:07:58;;;;;;;1.00;1.00;;;;;;;-3.35;91.24;97359.25;5012740;28;20076;-82
2023/01/31 03:10:44;;;;;;;1.00;1.00;;;;;;;-3.35;91.49;97350.53;5012262;28;20563;-81
2023/01/31 03:13:22;;;;;;;1.00;1.00;;;;;;;-3.26;90.80;97352.00;4996548;28;20119;-82
2023/01/31 03:19:12;;;;;;;0.80;0.80;;;;;;;-3.28;90.55;97359.28;5026417;28;20057;-82
2023/01/31 03:21:49;;;;;;;0.93;0.93;;;;;;;-3.29;90.83;97357.69;5005746;28;20049;-82
2023/01/31 03:24:16;;;;;;;0.88;0.88;;;;;;;-3.29;90.66;97360.31;5012801;28;20054;-80
2023/01/31 03:26:48;;;;;;;0.70;0.70;;;;;;;-3.29;90.78;97370.88;4997170;28;20060;-83
2023/01/31 03:29:16;;;;;;;0.70;0.70;;;;;;;-3.23;90.39;97362.16;4997093;28;20053;-82
2023/01/31 03:31:52;;;;;;;0.90;0.90;;;;;;;-3.25;90.30;97364.19;5012241;28;20041;-81
2023/01/31 03:34:19;;;;;;;0.70;0.70;;;;;;;-3.23;90.34;97375.34;5013005;28;20056;-82
2023/01/31 03:37:00;;;;;;;1.10;1.10;;;;;;;-3.21;90.64;97375.16;5012464;28;20406;-83
2023/01/31 03:39:55;;;;;;;0.70;0.70;;;;;;;-3.21;90.57;97369.88;5012146;28;20053;-82
2023/01/31 03:42:39;;;;;;;0.90;0.90;;;;;;;-3.17;90.42;97379.81;5012587;28;20105;-83
2023/01/31 03:45:35;;;;;;;0.90;0.90;;;;;;;-3.17;89.94;97376.38;5010082;28;20804;-81
2023/01/31 03:48:06;;;;;;;0.90;0.90;;;;;;;-3.18;90.29;97378.22;5023716;28;20459;-81
2023/01/31 03:50:39;;;;;;;0.80;0.80;;;;;;;-3.18;89.86;97394.06;5008892;28;20052;-81
2023/01/31 03:53:11;;;;;;;0.70;0.70;;;;;;;-3.18;89.92;97385.31;5027200;28;20041;-85
2023/01/31 03:55:55;;;;;;;1.00;1.00;;;;;;;-3.15;90.06;97390.19;5026162;28;20492;-82
2023/01/31 03:58:27;;;;;;;0.80;0.80;;;;;;;-3.14;89.98;97382.09;4992533;28;20053;-82
2023/01/31 04:00:58;;;;;;;0.80;0.80;;;;;;;-3.13;90.09;97382.91;4992974;28;20050;-81
2023/01/31 04:03:30;;;;;;;1.00;1.00;;;;;;;-3.10;89.81;97379.88;4993193;28;20049;-82
2023/01/31 04:05:59;;;;;;;0.80;0.80;;;;;;;-3.09;89.92;97382.31;4640437;28;9999976;-83
2023/01/31 04:08:27;;;;;;;0.77;0.77;;;;;;;-3.07;89.46;97393.47;4976709;28;20096;-83
2023/01/31 04:11:04;;;;;;;0.85;0.85;;;;;;;-3.12;89.47;97382.69;4993131;28;20046;-84
2023/01/31 04:13:32;;;;;;;0.80;0.80;;;;;;;-3.11;89.62;97381.69;5010134;28;20767;-82
2023/01/31 04:15:59;;;;;;;0.90;0.90;;;;;;;-3.08;89.57;97393.69;4987240;28;20054;-84
2023/01/31 04:18:26;;;;;;;0.90;0.90;;;;;;;-3.09;89.51;97394.69;4995989;28;20054;-82
2023/01/31 04:20:53;;;;;;;0.90;0.90;;;;;;;-3.11;89.76;97397.53;5014318;28;20076;-84
2023/01/31 04:23:21;;;;;;;0.90;0.90;;;;;;;-3.10;89.51;97393.06;5014691;28;20464;-84
2023/01/31 04:25:48;;;;;;;0.80;0.80;;;;;;;-3.10;89.77;97408.91;5014720;28;20046;-85
2023/01/31 04:28:15;;;;;;;0.90;0.90;;;;;;;-3.15;89.60;97382.28;5014316;28;20053;-86
2023/01/31 04:30:42;;;;;;;0.80;0.80;;;;;;;-3.13;89.97;97404.03;4997477;28;20577;-86
2023/01/31 04:33:09;;;;;;;0.93;0.93;;;;;;;-3.14;89.69;97399.72;5014783;28;20479;-85
2023/01/31 04:35:39;;;;;;;0.80;0.80;;;;;;;-3.15;90.08;97414.75;5013764;28;20532;-86
2023/01/31 04:38:06;;;;;;;0.95;0.95;;;;;;;-3.19;90.07;97416.19;4996317;28;20073;-85
2023/01/31 04:40:34;;;;;;;0.90;0.90;;;;;;;-3.14;90.31;97408.50;5013171;28;20072;-84
2023/01/31 04:43:01;;;;;;;0.70;0.70;;;;;;;-3.14;90.57;97420.84;4996219;28;20054;-84
2023/01/31 04:45:29;;;;;;;0.90;0.90;;;;;;;-3.17;90.32;97419.41;5013104;28;20431;-84
2023/01/31 04:47:59;;;;;;;0.80;0.80;;;;;;;-3.15;90.59;97422.69;5013761;28;20513;-85
2023/01/31 04:50:30;;;;;;;0.88;0.88;;;;;;;-3.19;90.75;97425.91;4997721;28;20045;-84
2023/01/31 04:52:57;;;;;;;0.75;0.75;;;;;;;-3.18;90.68;97433.63;5014669;28;20061;-86
2023/01/31 04:55:26;;;;;;;1.00;1.00;;;;;;;-3.16;90.92;97425.53;5013857;28;20487;-84
2023/01/31 04:58:01;;;;;;;0.80;0.80;;;;;;;-3.17;91.16;97424.69;5024942;28;20072;-87
2023/01/31 05:00:30;;;;;;;0.90;0.90;;;;;;;-3.19;91.15;97428.53;5030788;28;20049;-84
2023/01/31 05:02:58;;;;;;;1.05;1.05;;;;;;;-3.20;91.25;97419.00;5011280;28;20065;-84
2023/01/31 05:05:28;;;;;;;0.80;0.80;;;;;;;-3.18;91.54;97428.34;5025486;28;20049;-85
2023/01/31 05:07:55;;;;;;;0.80;0.80;;;;;;;-3.19;91.25;97424.09;5035408;28;20056;-85
2023/01/31 05:10:25;;;;;;;0.90;0.90;;;;;;;-3.21;91.30;97433.22;5038988;28;20094;-84
2023/01/31 05:12:52;;;;;;;1.10;1.10;;;;;;;-3.23;91.58;97424.69;5020538;28;20045;-86
2023/01/31 05:15:20;;;;;;;0.70;0.70;;;;;;;-3.20;91.66;97435.66;5034618;28;20045;-85
2023/01/31 05:18:01;;;;;;;0.80;0.80;;;;;;;-3.20;91.75;97421.63;5015334;28;20038;-84
2023/01/31 05:20:35;;;;;;;0.93;0.93;;;;;;;-3.18;91.73;97438.91;5032621;28;20142;-85
2023/01/31 05:23:02;;;;;;;0.77;0.77;;;;;;;-3.21;91.49;97439.31;5032306;28;20053;-83
2023/01/31 05:25:30;;;;;;;0.90;0.90;;;;;;;-3.31;91.94;97423.81;5025028;28;20041;-84
2023/01/31 05:27:58;;;;;;;1.00;1.00;;;;;;;-3.20;91.98;97435.66;4995921;28;20050;-85
2023/01/31 05:30:28;;;;;;;0.60;0.60;;;;;;;-3.18;91.85;97436.28;4666375;28;10000156;-84
2023/01/31 05:32:55;;;;;;;0.80;0.80;;;;;;;-3.15;91.91;97437.69;5023371;28;20104;-84
2023/01/31 05:35:28;;;;;;;0.85;0.85;;;;;;;-3.16;91.83;97446.63;4986675;28;20057;-84
2023/01/31 05:37:58;;;;;;;0.90;0.90;;;;;;;-3.16;91.79;97442.19;4991996;28;20100;-84
2023/01/31 05:40:25;;;;;;;1.00;1.00;;;;;;;-3.14;91.62;97444.59;5008818;28;20053;-86
2023/01/31 05:42:55;;;;;;;0.80;0.80;;;;;;;-3.16;91.63;97441.38;4991662;28;20104;-84
2023/01/31 05:45:23;;;;;;;0.80;0.80;;;;;;;-3.15;91.90;97442.97;5015465;28;20089;-83
2023/01/31 05:47:50;;;;;;;0.73;0.73;;;;;;;-3.16;92.08;97444.00;5012194;28;20049;-82
2023/01/31 05:50:18;;;;;;;0.80;0.80;;;;;;;-3.13;91.81;97449.69;4996019;28;20058;-83
2023/01/31 05:52:55;;;;;;;0.80;0.80;;;;;;;-3.12;91.59;97447.88;4995338;28;20041;-81
2023/01/31 05:55:25;;;;;;;0.60;0.60;;;;;;;-3.16;91.64;97439.53;5008103;28;20061;-83
2023/01/31 05:57:52;;;;;;;0.80;0.80;;;;;;;-3.13;91.69;97447.06;5008248;28;20463;-81
2023/01/31 06:00:23;;;;;;;0.80;0.80;;;;;;;-3.11;91.36;97450.31;5013461;28;20046;-82
2023/01/31 06:02:50;;;;;;;0.90;0.90;;;;;;;-3.10;91.67;97451.94;5015649;28;20045;-81
2023/01/31 06:05:17;;;;;;;0.90;0.90;;;;;;;-3.09;91.60;97458.88;5016332;28;20463;-82
2023/01/31 06:07:45;;;;;;;0.90;0.90;;;;;;;-3.08;91.54;97457.03;4979411;28;20054;-82
2023/01/31 06:10:13;;;;;;;0.80;0.80;;;;;;;-3.04;91.49;97458.25;5013082;28;20074;-82
2023/01/31 06:12:41;;;;;;;0.80;0.80;;;;;;;-2.99;91.61;97457.66;5014023;28;20057;-80
2023/01/31 06:15:09;;;;;;;0.90;0.90;;;;;;;-2.99;91.16;97461.13;4990335;28;20046;-82
2023/01/31 06:17:36;;;;;;;0.82;0.82;;;;;;;-2.99;91.03;97468.22;5009789;28;20050;-82
2023/01/31 06:20:05;;;;;;;0.75;0.75;;;;;;;-2.96;91.13;97458.13;5015624;28;20060;-84
2023/01/31 06:22:32;;;;;;;0.90;0.90;;;;;;;-2.91;91.21;97473.34;5015148;28;20100;-83
2023/01/31 06:25:01;;;;;;;0.88;0.88;;;;;;;-2.90;90.93;97472.34;5017242;28;20477;-83
2023/01/31 06:27:31;;;;;;;0.90;0.90;;;;;;;-2.88;90.74;97468.50;5009204;28;20045;-82
2023/01/31 06:29:59;;;;;;;0.80;0.80;;;;;;;-2.88;90.77;97471.13;5010073;28;20055;-81
2023/01/31 06:32:26;;;;;;;0.98;0.98;;;;;;;-2.86;90.63;97479.69;5025381;28;20056;-84
2023/01/31 06:34:53;;;;;;;1.00;1.00;;;;;;;-2.87;90.28;97483.31;5024460;28;20140;-83
2023/01/31 06:37:20;;;;;;;0.90;0.90;;;;;;;-2.87;90.59;97477.22;5016481;28;20128;-81
2023/01/31 06:39:47;;;;;;;0.80;0.80;;;;;;;-2.88;90.71;97480.88;5026984;28;20053;-84
2023/01/31 06:42:14;;;;;;;0.80;0.80;;;;;;;-2.87;90.57;97495.72;5009248;28;20518;-82
2023/01/31 06:44:41;;;;;;;0.77;0.77;;;;;;;-2.83;90.29;97515.44;5019873;28;20046;-85
2023/01/31 06:47:11;;;;;;;0.90;0.90;;;;;;;-2.84;90.33;97504.06;4995762;28;20120;-84
2023/01/31 06:49:39;;;;;;;1.00;1.00;;;;;;;-2.80;90.62;97493.91;5010300;28;20574;-82
2023/01/31 06:52:06;;;;;;;0.80;0.80;;;;;;;-2.77;90.34;97498.00;5010913;28;20123;-82
2023/01/31 06:54:33;;;;;;;0.95;0.95;;;;;;;-2.73;90.32;97502.69;5006564;28;20069;-83
2023/01/31 06:57:00;;;;;;;0.90;0.90;;;;;;;-2.72;90.15;97501.66;5015402;28;20427;-84
2023/01/31 06:59:27;;;;;;;0.80;0.80;;;;;;;-2.67;89.96;97503.72;5002092;28;20550;-85
2023/01/31 07:01:54;;;;;;;0.68;0.68;;;;;;;-2.70;89.76;97504.94;5019831;28;20424;-84
2023/01/31 07:04:21;;;;;;;0.80;0.80;;;;;;;-2.65;89.58;97505.16;5017636;28;20092;-83
2023/01/31 07:06:49;;;;;;;0.82;0.82;;;;;;;-2.69;89.75;97516.31;5009604;28;20069;-83
2023/01/31 07:09:16;;;;;;;0.80;0.80;;;;;;;-2.62;89.47;97525.06;5012123;28;20060;-83
2023/01/31 07:11:43;;;;;;;0.80;0.80;;;;;;;-2.63;89.86;97518.19;5009558;28;20049;-83
2023/01/31 07:14:10;;;;;;;0.90;0.90;;;;;;;-2.66;89.54;97515.91;5009940;28;20751;-81
2023/01/31 07:16:37;;;;;;;1.00;1.00;;;;;;;-2.63;89.94;97534.84;5007334;28;20100;-82
2023/01/31 07:19:08;;;;;;;0.90;0.90;;;;;;;-2.57;89.72;97519.22;5012537;28;20460;-82
2023/01/31 07:21:35;;;;;;;0.98;0.98;;;;;;;-2.56;89.66;97532.19;5010016;28;20362;-85
2023/01/31 07:24:03;;;;;;;0.98;0.98;;;;;;;-2.52;89.52;97517.59;5013138;28;20051;-82
2023/01/31 07:26:30;;;;;;;0.90;0.90;;;;;;;-2.52;89.36;97530.81;5011641;28;20121;-82
2023/01/31 07:28:58;;;;;;;0.90;0.90;;;;;;;-2.50;89.37;97535.91;5003172;28;20058;-82
2023/01/31 07:31:25;;;;;;;0.70;0.70;;;;;;;-2.48;89.12;97533.84;5017857;28;20523;-82
2023/01/31 07:33:52;;;;;;;1.00;1.00;;;;;;;-2.48;89.23;97547.91;5017234;28;20084;-83
2023/01/31 07:36:25;;;;;;;0.73;0.73;;;;;;;-2.48;89.32;97532.06;5002794;28;20049;-81
2023/01/31 07:38:54;;;;;;;1.00;1.00;;;;;;;-2.48;89.29;97539.16;5012163;28;20084;-83
2023/01/31 07:41:25;;;;;;;0.70;0.70;;;;;;;-2.46;89.43;97548.50;5001599;28;20104;-83
2023/01/31 07:43:52;;;;;;;0.80;0.80;;;;;;;-2.41;89.32;97553.19;5022250;28;20448;-82
2023/01/31 07:46:20;;;;;;;0.98;0.98;;;;;;;-2.39;89.79;97556.47;5006312;28;20049;-82
2023/01/31 07:48:48;;;;;;;0.90;0.90;;;;;;;-2.34;89.37;97555.88;5003343;28;20049;-82
2023/01/31 07:51:16;;;;;;;0.90;0.90;;;;;;;-2.32;89.08;97556.50;5019507;28;20077;-81
2023/01/31 07:53:43;;;;;;;0.80;0.80;;;;;;;-2.29;89.14;97558.75;5002195;28;20074;-83
2023/01/31 07:56:19;;;;;;;0.90;0.90;;;;;;;-2.29;89.21;97559.56;5012532;28;20049;-82
2023/01/31 07:58:48;;;;;;;1.00;1.00;;;;;;;-2.33;89.04;97557.50;4994986;28;20049;-82
2023/01/31 08:04:11;;;;;;;0.88;0.88;;;;;;;-2.24;88.70;97582.75;5014712;28;20398;-82
2023/01/31 08:06:48;;;;;;;0.98;0.98;;;;;;;-2.23;88.74;97579.09;5026719;28;20053;-80
2023/01/31 08:09:15;;;;;;;0.90;0.90;;;;;;;-2.27;88.46;97562.00;5030222;28;20072;-82
2023/01/31 08:11:44;;;;;;;1.00;1.00;;;;;;;-2.20;88.80;97562.84;5023142;28;20500;-82
2023/01/31 08:14:12;;;;;;;1.00;1.00;;;;;;;-2.14;88.32;97572.63;5007927;28;20045;-82
2023/01/31 08:16:45;;;;;;;0.90;0.90;;;;;;;-2.16;88.30;97584.41;5025430;28;20080;-81
2023/01/31 08:19:14;;;;;;;0.88;0.88;;;;;;;-2.15;87.96;97580.75;5025447;28;20151;-81
2023/01/31 08:21:42;;;;;;;0.90;0.90;;;;;;;-2.13;88.35;97590.09;4994557;28;20049;-81
2023/01/31 08:24:10;;;;;;;0.80;0.80;;;;;;;-2.07;87.77;97584.03;5025538;28;20414;-82
2023/01/31 08:26:37;;;;;;;0.98;0.98;;;;;;;-2.09;87.76;97580.78;5024472;28;20144;-82
2023/01/31 08:29:08;;;;;;;0.90;0.90;;;;;;;-2.05;87.55;97586.47;5020941;28;20053;-81
2023/01/31 08:31:35;;;;;;;0.95;0.95;;;;;;;-2.08;87.69;97600.09;5025473;28;20060;-82
2023/01/31 08:34:06;;;;;;;0.80;0.80;;;;;;;-2.09;87.68;97614.31;5030122;28;20847;-84
2023/01/31 08:36:34;;;;;;;1.00;1.00;;;;;;;-2.04;87.84;97588.13;5013345;28;20547;-84
2023/01/31 08:39:03;;;;;;;0.82;0.82;;;;;;;-2.04;87.43;97582.81;5030509;28;20144;-84
2023/01/31 08:41:32;;;;;;;0.88;0.88;;;;;;;-1.98;87.59;97597.88;5006684;28;20042;-83
2023/01/31 08:43:59;;;;;;;0.80;0.80;;;;;;;-1.93;87.44;97584.88;5020080;28;20060;-82
2023/01/31 08:46:33;;;;;;;0.93;0.93;;;;;;;-1.94;87.54;97585.09;5014521;28;20057;-82
2023/01/31 08:49:03;;;;;;;0.70;0.70;;;;;;;-1.92;87.49;97597.09;5019668;28;20073;-83
2023/01/31 08:51:33;;;;;;;0.73;0.73;;;;;;;-1.93;87.46;97590.16;5020983;28;20137;-84
2023/01/31 08:54:00;;;;;;;1.00;1.00;;;;;;;-1.92;87.65;97593.63;5029144;28;20167;-83
2023/01/31 08:56:27;;;;;;;0.90;0.90;;;;;;;-1.91;87.40;97596.06;5026205;28;20083;-86
2023/01/31 08:59:03;;;;;;;0.90;0.90;;;;;;;-1.97;87.37;97591.59;5021063;28;20050;-84
2023/01/31 09:01:34;;;;;;;0.80;0.80;;;;;;;-1.89;87.86;97599.34;5032420;28;20572;-83
2023/01/31 09:04:01;;;;;;;0.98;0.98;;;;;;;-1.87;87.67;97602.59;5032778;28;20049;-82
2023/01/31 09:06:28;;;;;;;0.98;0.98;;;;;;;-1.88;87.71;97586.94;4998341;28;20054;-83
2023/01/31 09:08:57;;;;;;;1.00;1.00;;;;;;;-1.87;87.60;97594.69;5032967;28;20053;-82
2023/01/31 09:11:28;;;;;;;0.95;0.95;;;;;;;-1.78;87.13;97595.28;5032343;28;20680;-82
2023/01/31 09:13:56;;;;;;;1.08;1.08;;;;;;;-1.75;87.20;97598.38;5032464;28;20061;-83
2023/01/31 09:16:23;;;;;;;0.90;0.90;;;;;;;-1.69;87.17;97588.81;5032857;28;20076;-86
2023/01/31 09:18:52;;;;;;;1.00;1.00;;;;;;;-1.62;86.99;97594.09;5024518;28;20417;-82
2023/01/31 09:21:20;;;;;;;0.90;0.90;;;;;;;-1.61;86.90;97587.81;5029068;28;20067;-83
2023/01/31 09:23:53;;;;;;;0.90;0.90;;;;;;;-1.58;86.50;97584.75;5030704;28;20065;-82
2023/01/31 09:26:20;;;;;;;0.80;0.80;;;;;;;-1.47;86.43;97604.50;5028898;28;20053;-82
2023/01/31 09:28:49;;;;;;;1.00;1.00;;;;;;;-1.50;86.69;97599.63;5031402;28;20049;-83
2023/01/31 09:31:21;;;;;;;1.00;1.00;;;;;;;-1.46;86.50;97584.97;5014177;28;20123;-82
2023/01/31 09:33:48;;;;;;;0.98;0.98;;;;;;;-1.43;85.93;97588.03;4995427;28;20086;-83
2023/01/31 09:36:18;;;;;;;0.93;0.93;;;;;;;-1.47;85.41;97576.19;5030713;28;20088;-83
2023/01/31 09:38:45;;;;;;;1.10;1.10;;;;;;;-1.49;85.98;97582.72;5033188;28;20072;-84
2023/01/31 09:41:18;;;;;;;0.90;0.90;;;;;;;-1.50;85.48;97587.19;5031428;28;20056;-83
2023/01/31 09:43:51;;;;;;;1.10;1.10;;;;;;;-1.46;85.67;97591.09;5028324;28;20053;-83
2023/01/31 09:46:20;;;;;;;1.00;1.00;;;;;;;-1.40;85.49;97579.66;5021373;28;20049;-83
2023/01/31 09:48:50;;;;;;;1.00;1.00;;;;;;;-1.41;85.58;97593.94;5012436;28;20049;-82
2023/01/31 09:51:20;;;;;;;0.90;0.90;;;;;;;-1.39;85.54;97586.63;5008074;28;20073;-83
2023/01/31 09:53:50;;;;;;;0.90;0.90;;;;;;;-1.41;85.28;97591.28;5026321;28;20054;-83
2023/01/31 09:56:31;;;;;;;0.85;0.85;;;;;;;-1.34;85.23;97615.13;5012503;28;20111;-83
2023/01/31 09:59:21;;;;;;;0.90;0.90;;;;;;;-1.31;85.33;97606.78;5030122;28;20060;-82
2023/01/31 10:02:00;;;;;;;0.70;0.70;;;;;;;-1.34;85.03;97591.31;5011116;28;20049;-82
2023/01/31 10:04:36;;;;;;;0.93;0.93;;;;;;;-1.31;84.88;97610.22;5014598;28;20048;-82
2023/01/31 10:07:09;;;;;;;0.98;0.98;;;;;;;-1.32;84.68;97589.25;5028609;28;20060;-82
2023/01/31 10:09:38;;;;;;;0.90;0.90;;;;;;;-1.35;84.68;97603.69;5016134;28;20049;-83
2023/01/31 10:12:10;;;;;;;0.80;0.80;;;;;;;-1.43;84.45;97587.22;4996246;28;20187;-83
2023/01/31 10:15:00;;;;;;;0.90;0.90;;;;;;;-1.34;84.83;97602.69;5012490;28;20420;-82
2023/01/31 10:17:38;;;;;;;0.90;0.90;;;;;;;-1.39;84.44;97622.84;4993936;28;20046;-82
2023/01/31 10:20:26;;;;;;;1.00;1.00;;;;;;;-1.40;84.66;97621.22;4994105;28;20046;-82
2023/01/31 10:23:07;;;;;;;0.75;0.75;;;;;;;-1.44;84.96;97604.94;5027061;28;20058;-81
2023/01/31 10:25:50;;;;;;;1.00;1.00;;;;;;;-1.34;85.25;97620.41;5011292;28;20120;-83
2023/01/31 10:28:22;;;;;;;1.00;1.00;;;;;;;-1.33;84.75;97622.03;5026725;28;20096;-81
2023/01/31 10:30:59;;;;;;;0.90;0.90;;;;;;;-1.37;84.95;97624.28;5011481;28;20046;-80
2023/01/31 10:33:38;;;;;;;0.90;0.90;;;;;;;-1.33;84.87;97617.56;4995764;28;20050;-82
2023/01/31 10:36:32;;;;;;;0.85;0.85;;;;;;;-1.29;84.87;97617.97;4979014;28;20042;-82
2023/01/31 10:39:02;;;;;;;0.90;0.90;;;;;;;-1.27;84.67;97607.16;4993704;28;20053;-82
2023/01/31 10:41:40;;;;;;;0.80;0.80;;;;;;;-1.28;84.71;97608.19;4977721;28;20498;-83
2023/01/31 10:44:23;;;;;;;0.90;0.90;;;;;;;-1.27;84.79;97629.16;5011055;28;20050;-82
2023/01/31 10:46:56;;;;;;;0.90;0.90;;;;;;;-1.18;84.51;97617.38;4993947;28;20050;-82
2023/01/31 10:49:26;;;;;;;1.10;1.10;;;;;;;-1.17;84.26;97618.16;5010098;28;20049;-83
2023/01/31 10:52:24;;;;;;;0.90;0.90;;;;;;;-1.12;83.98;97618.38;5029499;28;20451;-82
2023/01/31 10:55:17;;;;;;;1.10;1.10;;;;;;;-1.20;84.10;97632.63;5009895;28;20140;-81
2023/01/31 10:57:44;;;;;;;1.00;1.00;;;;;;;-1.22;83.84;97628.56;5014666;28;20512;-83
2023/01/31 11:00:19;;;;;;;0.80;0.80;;;;;;;-1.23;84.20;97617.16;5032109;28;20601;-82
2023/01/31 11:02:50;;;;;;;1.00;1.00;;;;;;;-1.23;84.01;97608.41;5018708;28;20052;-83
2023/01/31 11:05:20;;;;;;;0.93;0.93;;;;;;;-1.24;84.12;97602.31;5030700;28;20060;-82
2023/01/31 11:07:49;;;;;;;0.90;0.90;;;;;;;-1.34;84.16;97615.94;5012356;28;20050;-83
2023/01/31 11:10:31;;;;;;;1.00;1.00;;;;;;;-1.24;84.31;97654.41;4989946;28;20056;-84
2023/01/31 11:13:08;;;;;;;0.90;0.90;;;;;;;-1.28;83.80;97624.88;5008166;28;20068;-83
2023/01/31 11:15:38;;;;;;;0.93;0.93;;;;;;;-1.24;84.29;97622.66;5003109;28;20202;-82
2023/01/31 11:18:06;;;;;;;0.95;0.95;;;;;;;-1.19;83.89;97621.03;5008080;28;20512;-82
2023/01/31 11:20:36;;;;;;;1.00;1.00;;;;;;;-1.24;83.95;97622.66;5013874;28;20056;-83
2023/01/31 11:23:05;;;;;;;0.93;0.93;;;;;;;-1.28;84.16;97624.09;5002631;28;20060;-83
2023/01/31 11:25:33;;;;;;;0.90;0.90;;;;;;;-1.34;84.13;97633.66;5012398;28;20049;-82
2023/01/31 11:28:14;;;;;;;0.95;0.95;;;;;;;-1.34;84.42;97612.47;5000135;28;20046;-85
2023/01/31 11:30:41;;;;;;;1.00;1.00;;;;;;;-1.31;84.70;97618.16;4992326;28;20054;-82
2023/01/31 11:33:44;;;;;;;0.82;0.82;;;;;;;-1.24;84.81;97627.94;4998690;28;20122;-82
2023/01/31 11:36:21;;;;;;;0.80;0.80;;;;;;;-1.24;84.19;97638.53;4684892;28;9999970;-82
2023/01/31 11:38:49;;;;;;;1.10;1.10;;;;;;;-1.21;84.03;97620.41;5012581;28;20570;-80
2023/01/31 11:41:29;;;;;;;1.00;1.00;;;;;;;-1.23;84.22;97625.09;5020650;28;20504;-82
2023/01/31 11:44:06;;;;;;;0.90;0.90;;;;;;;-1.23;84.16;97626.94;5008281;28;20058;-83
2023/01/31 11:46:43;;;;;;;0.90;0.90;;;;;;;-1.27;84.13;97639.75;5009968;28;20131;-82
2023/01/31 11:49:19;;;;;;;1.00;1.00;;;;;;;-1.36;84.03;97651.56;4982224;28;20084;-82
2023/01/31 11:51:47;;;;;;;1.00;1.00;;;;;;;-1.34;84.40;97633.66;4991852;28;20046;-81
2023/01/31 11:54:20;;;;;;;0.88;0.88;;;;;;;-1.33;84.72;97641.38;5012799;28;20049;-82
2023/01/31 11:56:47;;;;;;;0.90;0.90;;;;;;;-1.34;84.52;97639.75;4994455;28;20090;-81
2023/01/31 11:59:18;;;;;;;0.93;0.93;;;;;;;-1.34;84.74;97650.34;5019964;28;20057;-82
2023/01/31 12:01:51;;;;;;;1.00;1.00;;;;;;;-1.35;84.84;97639.94;5008172;28;20049;-82
2023/01/31 12:04:27;;;;;;;1.00;1.00;;;;;;;-1.40;85.03;97647.69;4992700;28;20293;-82
2023/01/31 12:07:00;;;;;;;1.00;1.00;;;;;;;-1.36;85.05;97636.50;4992821;28;20493;-81
2023/01/31 12:09:39;;;;;;;0.90;0.90;;;;;;;-1.41;84.94;97648.69;5019972;28;20100;-82